Time;durP1;ratioP1;P1;durP2;ratioP2;P2;SDS_P1;SDS_P2;PMS_P1;PMS_P2;Temp;Humidity;BMP_temperature;BMP_pressure;BME280_temperature;BME280_humidity;BME280_pressure;Samples;Min_cycle;Max_cycle;Signal;HPM_P1;HPM_P2
2022/06/14 00:01:34;;;;;;;;;8.50;8.25;;;;;20.30;48.05;101977.75;5063245;28;45315;-58
2022/06/14 00:04:00;;;;;;;;;9.75;7.75;;;;;20.28;48.41;101979.69;5063022;28;45268;-58
2022/06/14 00:06:29;;;;;;;;;11.75;8.25;;;;;20.24;48.40;101975.56;5062944;28;46337;-58
2022/06/14 00:08:55;;;;;;;;;9.00;9.00;;;;;20.15;48.06;101981.66;5062650;28;45360;-58
2022/06/14 00:11:29;;;;;;;;;7.75;7.75;;;;;20.15;48.29;101973.66;5062906;28;45457;-58
2022/06/14 00:13:56;;;;;;;;;10.00;9.25;;;;;20.15;48.17;101981.66;5063222;28;45387;-58
2022/06/14 00:16:23;;;;;;;;;11.00;8.50;;;;;20.15;48.60;101983.50;5062546;28;45522;-58
2022/06/14 00:18:49;;;;;;;;;13.50;10.00;;;;;20.12;48.39;101978.38;5062951;28;45235;-58
2022/06/14 00:21:15;;;;;;;;;11.75;11.50;;;;;20.07;48.71;101973.41;5062785;28;45422;-58
2022/06/14 00:23:41;;;;;;;;;15.50;13.00;;;;;20.03;48.63;101978.13;5062828;28;45280;-58
2022/06/14 00:26:07;;;;;;;;;15.00;12.25;;;;;20.00;48.72;101967.69;5062402;28;45349;-58
2022/06/14 00:28:34;;;;;;;;;15.25;14.00;;;;;19.98;48.84;101974.13;5062588;28;45310;-58
2022/06/14 00:31:06;;;;;;;;;14.25;12.00;;;;;19.97;48.91;101969.75;5062688;28;45401;-58
2022/06/14 00:33:31;;;;;;;;;11.00;10.00;;;;;19.96;48.85;101982.25;5062594;28;45660;-58
2022/06/14 00:36:03;;;;;;;;;17.00;10.00;;;;;19.94;48.49;101970.00;5062875;28;45280;-58
2022/06/14 00:38:29;;;;;;;;;14.00;8.75;;;;;19.89;49.10;101965.00;5062185;28;45277;-58
2022/06/14 00:40:57;;;;;;;;;11.50;10.00;;;;;19.86;49.04;101972.44;5062049;28;45244;-58
2022/06/14 00:43:25;;;;;;;;;10.25;9.00;;;;;19.84;48.94;101974.38;5062572;28;45427;-58
2022/06/14 00:45:51;;;;;;;;;10.75;8.75;;;;;19.84;49.25;101972.56;5062616;28;46141;-58
2022/06/14 00:48:31;;;;;;;;;7.75;7.75;;;;;19.84;49.09;101977.06;5062128;28;45385;-58
2022/06/14 00:51:13;;;;;;;;;7.75;6.25;;;;;19.81;49.30;101983.47;5062415;28;45282;-57
2022/06/14 00:53:54;;;;;;;;;7.00;7.00;;;;;19.76;48.97;101974.97;5062097;28;45345;-58
2022/06/14 00:56:31;;;;;;;;;7.25;6.50;;;;;19.73;48.81;101969.84;5062117;28;45414;-57
2022/06/14 00:59:17;;;;;;;;;7.00;7.00;;;;;19.71;48.93;101967.31;5062081;28;45478;-57
2022/06/14 01:01:45;;;;;;;;;8.00;6.50;;;;;19.71;49.51;101969.13;5062150;28;45375;-58
2022/06/14 01:04:19;;;;;;;;;4.75;4.75;;;;;19.71;49.07;101969.97;5062426;28;45330;-58
2022/06/14 01:06:47;;;;;;;;;8.25;7.00;;;;;19.71;49.37;101964.63;5061892;28;45568;-58
2022/06/14 01:09:17;;;;;;;;;8.00;6.25;;;;;19.70;48.90;101970.97;5061949;28;45212;-58
2022/06/14 01:11:48;;;;;;;;;9.00;6.25;;;;;19.66;49.20;101971.31;5062215;28;45244;-58
2022/06/14 01:14:19;;;;;;;;;7.00;6.00;;;;;19.64;49.34;101967.91;5061856;28;45465;-58
2022/06/14 01:16:45;;;;;;;;;7.00;6.75;;;;;19.64;49.43;101962.56;5061981;28;46025;-58
2022/06/14 01:19:21;;;;;;;;;8.00;8.00;;;;;19.62;49.50;101965.34;5061630;28;45301;-58
2022/06/14 01:22:02;;;;;;;;;6.75;6.25;;;;;19.57;49.17;101959.50;5062295;28;45405;-58
2022/06/14 01:24:29;;;;;;;;;6.50;5.00;;;;;19.55;49.47;101955.22;5060504;28;45490;-58
2022/06/14 01:26:57;;;;;;;;;9.00;6.00;;;;;19.49;49.42;101954.72;5061755;28;45347;-57
2022/06/14 01:29:24;;;;;;;;;8.25;7.00;;;;;19.43;49.45;101955.22;5061644;28;45300;-57
2022/06/14 01:31:54;;;;;;;;;6.00;6.00;;;;;19.37;49.24;101953.03;5061839;28;45272;-57
2022/06/14 01:34:22;;;;;;;;;7.25;7.00;;;;;19.27;49.43;101943.97;5061737;28;45318;-57
2022/06/14 01:36:47;;;;;;;;;6.25;6.00;;;;;19.19;49.72;101949.91;5061528;28;45314;-57
2022/06/14 01:39:18;;;;;;;;;8.00;7.25;;;;;19.18;49.32;101950.03;5061258;28;45279;-57
2022/06/14 01:42:05;;;;;;;;;9.50;7.25;;;;;19.17;49.58;101945.66;5061608;28;45449;-57
2022/06/14 01:45:01;;;;;;;;;7.00;7.00;;;;;19.15;49.95;101953.81;5061703;28;45457;-57
2022/06/14 01:47:27;;;;;;;;;5.50;5.50;;;;;19.10;49.83;101933.75;5061341;28;45410;-57
2022/06/14 01:52:59;;;;;;;;;8.75;7.75;;;;;19.06;49.61;101935.81;5060729;28;45298;-57
2022/06/14 01:55:41;;;;;;;;;8.75;7.75;;;;;19.00;50.05;101928.25;5061278;28;45441;-58
2022/06/14 01:58:18;;;;;;;;;7.00;6.00;;;;;18.94;50.09;101932.22;5061457;28;45335;-57
2022/06/14 02:01:20;;;;;;;;;8.75;8.75;;;;;18.88;50.13;101924.72;5061396;28;45286;-57
2022/06/14 02:07:13;;;;;;;;;7.75;6.50;;;;;18.86;50.13;101917.75;5060958;28;45321;-58
2022/06/14 02:09:54;;;;;;;;;6.50;5.75;;;;;18.85;50.29;101906.22;5061081;28;45432;-58
2022/06/14 02:12:30;;;;;;;;;6.75;6.25;;;;;18.85;50.02;101913.41;5060775;28;45294;-57
2022/06/14 02:15:14;;;;;;;;;4.50;4.00;;;;;18.83;50.35;101910.84;5061257;28;45329;-57
2022/06/14 02:17:47;;;;;;;;;5.50;4.50;;;;;18.80;50.37;101905.75;5061099;28;45518;-58
2022/06/14 02:20:19;;;;;;;;;5.00;5.00;;;;;18.78;50.50;101906.81;5061013;28;46038;-57
2022/06/14 02:22:58;;;;;;;;;7.00;5.50;;;;;18.74;50.16;101906.19;5060696;28;45487;-57
2022/06/14 02:25:39;;;;;;;;;5.75;5.25;;;;;18.72;50.11;101907.25;5060928;28;45379;-57
2022/06/14 02:28:18;;;;;;;;;8.00;4.25;;;;;18.71;50.18;101919.75;5061319;28;45260;-57
2022/06/14 02:30:56;;;;;;;;;4.75;4.75;;;;;18.73;50.26;101919.66;5065436;28;46218;-58
2022/06/14 02:33:31;;;;;;;;;5.25;4.75;;;;;18.68;50.23;101912.84;5065982;28;45375;-58
2022/06/14 02:36:04;;;;;;;;;4.50;4.00;;;;;18.64;50.40;101918.47;5060893;28;45287;-57
2022/06/14 02:38:42;;;;;;;;;3.25;3.25;;;;;18.60;50.71;101917.03;5060766;28;45209;-57
2022/06/14 02:41:31;;;;;;;;;4.00;3.75;;;;;18.55;50.35;101916.50;5060659;28;45244;-57
2022/06/14 02:44:05;;;;;;;;;4.00;3.75;;;;;18.49;50.64;101914.31;5060698;28;45429;-57
2022/06/14 02:46:41;;;;;;;;;5.00;4.75;;;;;18.41;50.85;101910.38;5059544;28;45362;-57
2022/06/14 02:49:15;;;;;;;;;5.50;3.25;;;;;18.37;50.51;101916.06;5060710;28;45430;-57
2022/06/14 02:51:47;;;;;;;;;5.00;4.25;;;;;18.34;50.83;101916.28;5060537;28;46150;-57
2022/06/14 02:54:41;;;;;;;;;4.00;4.00;;;;;18.33;50.81;101919.91;5060668;28;45249;-57
2022/06/14 02:57:12;;;;;;;;;4.00;4.00;;;;;18.27;50.86;101902.53;5057464;28;45540;-57
2022/06/14 02:59:53;;;;;;;;;5.00;4.00;;;;;18.27;50.98;101901.69;5060651;28;45580;-57
2022/06/14 03:02:46;;;;;;;;;5.00;3.25;;;;;18.25;51.01;101898.28;5060386;28;45457;-57
2022/06/14 03:05:50;;;;;;;;;4.75;4.25;;;;;18.20;51.04;101892.44;5061775;28;45234;-57
2022/06/14 03:08:24;;;;;;;;;3.50;3.00;;;;;18.17;50.98;101890.84;5063826;28;46551;-57
2022/06/14 03:11:09;;;;;;;;;4.00;4.00;;;;;18.12;50.77;101887.66;5064049;28;45441;-57
2022/06/14 03:13:55;;;;;;;;;4.50;3.00;;;;;18.08;50.96;101884.34;5063903;28;46018;-57
2022/06/14 03:16:53;;;;;;;;;2.50;2.50;;;;;18.09;51.06;101887.88;5063664;28;45197;-57
2022/06/14 03:19:43;;;;;;;;;4.00;4.00;;;;;18.09;51.38;101878.06;5058789;28;45366;-57
2022/06/14 03:22:46;;;;;;;;;3.75;3.75;;;;;18.08;51.28;101879.00;5063659;28;45308;-57
2022/06/14 03:25:23;;;;;;;;;3.00;3.00;;;;;18.08;51.28;101887.00;5063536;28;46204;-59
2022/06/14 03:27:51;;;;;;;;;3.25;2.75;;;;;18.09;51.15;101886.06;5063497;28;45363;-59
2022/06/14 03:30:34;;;;;;;;;5.00;4.00;;;;;18.10;51.39;101890.44;5063675;28;45304;-58
2022/06/14 03:33:11;;;;;;;;;3.00;2.50;;;;;18.13;51.32;101892.03;5063750;28;45506;-59
2022/06/14 03:35:41;;;;;;;;;5.25;3.50;;;;;18.15;51.30;101890.09;5063634;28;45274;-58
2022/06/14 03:38:16;;;;;;;;;5.25;3.00;;;;;18.14;51.26;101889.22;5063140;28;45398;-58
2022/06/14 03:40:44;;;;;;;;;5.75;4.00;;;;;18.12;51.35;101888.50;5063443;28;45480;-58
2022/06/14 03:43:11;;;;;;;;;5.50;4.25;;;;;18.10;51.41;101893.09;5063644;28;45573;-59
2022/06/14 03:45:58;;;;;;;;;4.25;3.00;;;;;18.10;51.36;101887.78;5063335;28;45371;-58
2022/06/14 03:48:25;;;;;;;;;4.00;4.00;;;;;18.07;51.32;101884.47;5063274;28;45464;-58
2022/06/14 03:51:26;;;;;;;;;2.75;2.75;;;;;18.01;51.63;101888.44;5063371;28;45336;-59
2022/06/14 03:54:06;;;;;;;;;3.25;3.00;;;;;17.98;51.38;101883.31;5055646;28;45518;-58
2022/06/14 03:56:38;;;;;;;;;4.50;4.25;;;;;17.93;51.69;101889.94;5063082;28;45248;-58
2022/06/14 03:59:09;;;;;;;;;4.50;4.00;;;;;17.90;51.47;101885.69;5063290;28;45258;-59
2022/06/14 04:02:21;;;;;;;;;3.50;3.50;;;;;17.84;51.45;101888.78;5063271;28;45378;-58
2022/06/14 04:05:06;;;;;;;;;5.50;3.00;;;;;17.79;51.70;101890.94;5062801;28;45546;-58
2022/06/14 04:07:48;;;;;;;;;4.00;4.00;;;;;17.77;51.85;101885.72;5062927;28;46247;-58
2022/06/14 04:10:26;;;;;;;;;5.75;4.00;;;;;17.78;51.89;101890.09;5063104;28;45324;-59
2022/06/14 04:13:05;;;;;;;;;4.00;4.00;;;;;17.74;51.67;101885.06;5062879;28;45589;-58
2022/06/14 04:15:33;;;;;;;;;5.75;4.75;;;;;17.73;51.69;101886.88;5063185;28;45226;-58
2022/06/14 04:18:34;;;;;;;;;4.50;4.00;;;;;17.74;52.06;101891.25;5062252;28;45480;-58
2022/06/14 04:21:00;;;;;;;;;5.75;4.75;;;;;17.70;52.00;101889.78;5062567;28;45263;-58
2022/06/14 04:23:32;;;;;;;;;4.50;4.00;;;;;17.71;52.17;101901.28;5062742;28;45357;-58
2022/06/14 04:26:35;;;;;;;;;4.75;4.00;;;;;17.75;51.91;101900.94;5062780;28;45339;-58
2022/06/14 04:29:12;;;;;;;;;7.25;4.25;;;;;17.78;51.99;101894.56;5051190;28;46381;-58
2022/06/14 04:31:44;;;;;;;;;4.00;4.00;;;;;17.81;52.11;101891.69;5062651;28;45378;-58
2022/06/14 04:34:41;;;;;;;;;6.75;5.00;;;;;17.85;51.99;101883.38;5062485;28;45465;-58
2022/06/14 04:37:33;;;;;;;;;5.00;4.00;;;;;17.90;52.06;101883.00;5062482;28;45411;-58
2022/06/14 04:40:11;;;;;;;;;6.00;4.00;;;;;17.91;52.13;101881.19;5059751;28;45402;-58
2022/06/14 04:42:54;;;;;;;;;4.75;3.50;;;;;17.92;52.18;101882.91;5062518;28;45323;-58
2022/06/14 04:45:27;;;;;;;;;5.25;4.75;;;;;17.94;52.41;101881.00;5061064;28;45441;-59
2022/06/14 04:48:01;;;;;;;;;4.75;4.50;;;;;17.94;52.32;101876.50;5062603;28;45540;-59
2022/06/14 04:50:51;;;;;;;;;7.25;6.00;;;;;17.95;52.33;101872.88;5062133;28;45367;-59
2022/06/14 04:53:22;;;;;;;;;3.75;3.75;;;;;17.99;52.32;101885.00;5061518;28;45525;-59
2022/06/14 04:55:50;;;;;;;;;6.50;5.00;;;;;18.00;52.09;101873.38;5062283;28;45323;-59
2022/06/14 04:58:26;;;;;;;;;5.25;4.50;;;;;17.99;52.21;101877.00;5062384;28;45315;-59
2022/06/14 05:00:57;;;;;;;;;7.25;6.25;;;;;18.00;51.99;101875.19;5062058;28;45486;-59
2022/06/14 05:03:23;;;;;;;;;6.00;6.00;;;;;18.00;52.24;101876.03;5062005;28;45350;-59
2022/06/14 05:06:04;;;;;;;;;6.50;5.75;;;;;18.02;52.57;101876.81;5062394;28;45295;-59
2022/06/14 05:08:38;;;;;;;;;5.50;5.00;;;;;18.02;52.47;101875.97;5062263;28;45411;-59
2022/06/14 05:11:08;;;;;;;;;5.75;5.75;;;;;18.01;52.42;101868.91;5061571;28;45479;-59
2022/06/14 05:13:54;;;;;;;;;5.25;5.25;;;;;18.02;52.21;101873.28;5061975;28;45255;-59
2022/06/14 05:16:24;;;;;;;;;8.00;6.25;;;;;18.00;52.60;101876.03;5061940;28;45338;-59
2022/06/14 05:18:57;;;;;;;;;6.00;5.25;;;;;18.01;52.90;101874.22;5062046;28;45403;-59
2022/06/14 05:21:45;;;;;;;;;9.00;6.50;;;;;18.02;52.49;101868.81;5061914;28;46301;-59
2022/06/14 05:24:11;;;;;;;;;5.75;4.75;;;;;18.04;52.51;101879.34;5061573;28;45228;-59
2022/06/14 05:26:37;;;;;;;;;9.25;6.75;;;;;18.07;52.65;101877.31;5061849;28;45223;-59
2022/06/14 05:29:32;;;;;;;;;9.25;8.25;;;;;18.13;52.68;101876.88;5061534;28;45445;-59
2022/06/14 05:32:01;;;;;;;;;14.50;10.50;;;;;18.22;52.55;101879.81;5058431;28;46140;-59
2022/06/14 05:35:04;;;;;;;;;7.50;7.00;;;;;18.27;52.48;101870.53;5064705;28;45292;-59
2022/06/14 05:37:39;;;;;;;;;4.50;3.50;;;;;18.35;52.83;101868.16;5065469;28;45588;-59
2022/06/14 05:40:18;;;;;;;;;6.75;6.25;;;;;18.45;52.69;101865.63;5061105;28;45336;-58
2022/06/14 05:42:52;;;;;;;;;9.75;7.00;;;;;18.55;52.85;101871.13;5061391;28;45343;-57
2022/06/14 05:45:22;;;;;;;;;8.25;6.00;;;;;18.62;52.59;101870.56;5061223;28;45362;-57
2022/06/14 05:47:56;;;;;;;;;8.50;6.50;;;;;18.68;52.30;101872.81;5061516;28;45304;-59
2022/06/14 05:50:28;;;;;;;;;11.50;7.50;;;;;18.74;52.52;101882.19;5061525;28;45252;-59
2022/06/14 05:53:29;;;;;;;;;9.50;6.25;;;;;18.83;52.34;101885.97;5061073;28;45364;-59
2022/06/14 05:56:24;;;;;;;;;7.00;5.50;;;;;18.92;52.73;101877.25;5051075;28;45464;-59
2022/06/14 05:59:01;;;;;;;;;7.00;5.00;;;;;18.98;51.99;101879.47;5059234;28;45329;-59
2022/06/14 06:01:40;;;;;;;;;9.50;4.75;;;;;19.01;52.15;101876.53;5061553;28;45450;-59
2022/06/14 06:04:19;;;;;;;;;7.00;5.25;;;;;19.10;51.98;101883.00;5060935;28;45216;-59
2022/06/14 06:06:49;;;;;;;;;7.00;6.00;;;;;19.17;52.41;101871.72;5064650;28;45608;-59
2022/06/14 06:09:27;;;;;;;;;7.00;7.00;;;;;19.24;52.44;101870.28;5068103;28;45291;-59
2022/06/14 06:12:03;;;;;;;;;6.50;5.00;;;;;19.33;52.17;101875.88;5060953;28;45182;-59
2022/06/14 06:14:38;;;;;;;;;5.50;4.00;;;;;19.42;51.91;101873.31;5061125;28;45268;-59
2022/06/14 06:17:08;;;;;;;;;11.25;6.25;;;;;19.54;51.91;101868.84;5060306;28;45417;-57
2022/06/14 06:19:36;;;;;;;;;7.00;6.00;;;;;19.64;52.44;101869.00;5060889;28;45304;-57
2022/06/14 06:22:34;;;;;;;;;4.00;4.00;;;;;19.71;52.21;101864.88;5060589;28;45196;-60
2022/06/14 06:25:08;;;;;;;;;9.50;5.50;;;;;19.79;51.94;101870.44;5058460;28;45521;-59
2022/06/14 06:27:52;;;;;;;;;6.00;3.75;;;;;19.82;52.12;101856.81;5060813;28;45322;-59
2022/06/14 06:30:37;;;;;;;;;8.25;5.75;;;;;19.86;51.32;101860.97;5059477;28;45330;-59
2022/06/14 06:33:03;;;;;;;;;6.50;5.75;;;;;19.88;51.69;101848.31;5060892;28;45244;-60
2022/06/14 06:35:46;;;;;;;;;9.00;6.00;;;;;19.96;51.68;101848.53;5060856;28;45358;-59
2022/06/14 06:38:33;;;;;;;;;4.25;4.25;;;;;20.05;51.26;101845.09;5060834;28;45240;-59
2022/06/14 06:43:53;;;;;;;;;5.50;3.75;;;;;20.19;51.33;101851.16;5066001;28;45577;-59
2022/06/14 06:46:24;;;;;;;;;7.25;5.75;;;;;20.23;50.97;101847.28;5061505;28;46123;-59
2022/06/14 06:48:56;;;;;;;;;6.75;4.75;;;;;20.24;50.98;101857.84;5061411;28;45633;-60
2022/06/14 06:51:34;;;;;;;;;5.00;5.00;;;;;20.30;50.70;101859.16;5062704;28;45508;-59
2022/06/14 06:54:12;;;;;;;;;6.25;6.25;;;;;20.38;50.82;101851.38;5062951;28;45332;-59
2022/06/14 06:56:45;;;;;;;;;9.00;5.00;;;;;20.44;50.91;101856.22;5063403;28;45448;-60
2022/06/14 06:59:10;;;;;;;;;5.50;5.50;;;;;20.49;50.87;101848.66;5062874;28;45597;-59
2022/06/14 07:01:40;;;;;;;;;5.50;3.75;;;;;20.54;50.58;101849.13;5063185;28;45966;-57
2022/06/14 07:08:01;;;;;;;;;6.25;5.00;;;;;20.65;50.25;101845.53;5063827;28;46419;-59
2022/06/14 07:11:06;;;;;;;;;4.75;4.25;;;;;20.73;50.30;101850.25;5029905;28;45477;-59
2022/06/14 07:13:55;;;;;;;;;4.75;4.75;;;;;20.75;50.07;101845.59;5041428;28;45353;-61
2022/06/14 07:16:27;;;;;;;;;6.25;5.25;;;;;20.77;50.36;101846.31;5041575;28;45293;-59
2022/06/14 07:19:11;;;;;;;;;6.75;4.00;;;;;20.83;50.21;101843.13;5049079;28;45489;-59
2022/06/14 07:21:45;;;;;;;;;6.00;5.00;;;;;20.87;49.99;101831.19;5064011;28;45507;-59
2022/06/14 07:24:26;;;;;;;;;5.25;5.25;;;;;20.92;49.76;101834.31;5063775;28;45298;-59
2022/06/14 07:27:15;;;;;;;;;5.25;5.25;;;;;20.96;49.83;101833.06;5063835;28;45218;-58
2022/06/14 07:29:50;;;;;;;;;6.00;5.25;;;;;21.02;49.82;101832.56;5063376;28;45611;-57
2022/06/14 07:32:24;;;;;;;;;10.75;5.75;;;;;21.08;49.94;101826.66;5063441;28;45477;-57
2022/06/14 07:34:50;;;;;;;;;8.75;5.25;;;;;21.14;49.83;101828.81;5063849;28;45303;-58
2022/06/14 07:37:29;;;;;;;;;5.25;5.25;;;;;21.20;49.70;101824.75;5063692;28;45322;-59
2022/06/14 07:40:07;;;;;;;;;5.75;4.75;;;;;21.23;49.69;101816.44;5063433;28;46250;-59
2022/06/14 07:42:39;;;;;;;;;7.50;6.00;;;;;21.27;49.59;101815.22;5063392;28;45277;-59
2022/06/14 07:45:14;;;;;;;;;5.75;4.75;;;;;21.33;49.43;101811.13;5063446;28;45276;-59
2022/06/14 07:47:55;;;;;;;;;9.75;5.50;;;;;21.37;49.52;101816.09;5063340;28;45280;-59
2022/06/14 07:50:41;;;;;;;;;7.25;5.75;;;;;21.43;49.55;101814.72;5062994;28;45606;-59
2022/06/14 07:53:17;;;;;;;;;7.25;4.25;;;;;21.49;49.48;101811.50;5062257;28;45275;-59
2022/06/14 07:55:55;;;;;;;;;1.00;0.00;;;;;21.55;49.27;101808.25;5063410;28;45386;-59
2022/06/14 07:58:30;;;;;;;;;1.75;0.00;;;;;21.60;49.10;101822.13;5063404;28;45260;-59
2022/06/14 08:01:07;;;;;;;;;3.25;3.25;;;;;21.62;49.15;101808.56;5063262;28;45935;-59
2022/06/14 08:03:54;;;;;;;;;7.50;5.25;;;;;21.66;48.79;101805.50;5062625;28;45266;-58
2022/06/14 08:06:25;;;;;;;;;7.25;4.00;;;;;21.72;48.65;101799.59;5061596;28;45556;-58
2022/06/14 08:09:10;;;;;;;;;8.50;5.50;;;;;21.81;48.83;101803.28;5061074;28;45423;-59
2022/06/14 08:11:46;;;;;;;;;5.00;5.00;;;;;21.86;48.77;101800.16;5061917;28;45500;-59
2022/06/14 08:14:28;;;;;;;;;7.00;4.25;;;;;21.91;48.67;101792.56;5062581;28;45166;-59
2022/06/14 08:16:56;;;;;;;;;8.50;5.25;;;;;21.96;48.49;101792.97;5062361;28;45261;-59
2022/06/14 08:19:34;;;;;;;;;7.00;4.75;;;;;22.00;48.37;101787.19;5062602;28;45271;-59
2022/06/14 08:22:07;;;;;;;;;7.00;5.25;;;;;22.06;48.67;101795.69;5062633;28;45462;-59
2022/06/14 08:24:39;;;;;;;;;9.00;5.00;;;;;22.09;48.60;101782.00;5062244;28;45286;-59
2022/06/14 08:27:15;;;;;;;;;6.75;3.50;;;;;22.12;48.40;101782.59;5062152;28;45232;-59
2022/06/14 08:29:54;;;;;;;;;3.75;3.75;;;;;22.15;48.25;101774.25;5062500;28;45239;-58
2022/06/14 08:32:22;;;;;;;;;6.00;5.00;;;;;22.18;48.13;101781.16;5062414;28;45988;-59
2022/06/14 08:35:02;;;;;;;;;6.25;4.75;;;;;22.22;47.95;101777.22;5062442;28;45411;-59
2022/06/14 08:37:50;;;;;;;;;6.75;5.00;;;;;22.24;47.86;101777.91;5062185;28;45436;-59
2022/06/14 08:40:33;;;;;;;;;5.25;5.25;;;;;22.28;47.86;101773.97;5062194;28;45395;-58
2022/06/14 08:43:08;;;;;;;;;9.00;4.25;;;;;22.36;47.98;101770.59;5062187;28;46130;-59
2022/06/14 08:45:41;;;;;;;;;5.00;5.00;;;;;22.40;47.63;101767.47;5062957;28;45263;-59
2022/06/14 08:48:18;;;;;;;;;4.75;4.50;;;;;22.43;47.92;101767.16;5069902;28;45228;-57
2022/06/14 08:51:01;;;;;;;;;8.50;4.75;;;;;22.49;47.65;101769.28;5048821;28;45337;-59
2022/06/14 08:53:55;;;;;;;;;4.50;3.75;;;;;22.53;47.48;101770.69;5062731;28;45505;-59
2022/06/14 08:56:52;;;;;;;;;4.75;2.75;;;;;22.58;47.26;101765.72;5061883;28;45319;-59
2022/06/14 08:59:50;;;;;;;;;5.00;4.00;;;;;22.61;47.21;101769.97;5062275;28;45238;-59
2022/06/14 09:02:41;;;;;;;;;6.25;5.00;;;;;22.66;47.27;101765.00;5059796;28;45310;-59
2022/06/14 09:05:47;;;;;;;;;5.25;3.25;;;;;22.67;47.11;101766.72;5061087;28;47859;-59
2022/06/14 09:08:34;;;;;;;;;6.25;5.50;;;;;22.70;46.82;101761.06;5038889;28;45475;-59
2022/06/14 09:11:18;;;;;;;;;4.50;4.00;;;;;22.78;46.61;101768.38;5060391;28;45450;-59
2022/06/14 09:14:02;;;;;;;;;7.00;4.00;;;;;22.84;46.52;101768.66;5061813;28;45453;-58
2022/06/14 09:16:56;;;;;;;;;6.25;4.75;;;;;22.90;46.76;101775.31;5061954;28;46619;-59
2022/06/14 09:19:53;;;;;;;;;5.50;4.75;;;;;22.99;46.54;101776.28;5061836;28;45338;-58
2022/06/14 09:22:35;;;;;;;;;4.50;3.50;;;;;23.01;46.32;101775.16;5061622;28;45257;-58
2022/06/14 09:25:19;;;;;;;;;8.75;4.75;;;;;23.03;46.13;101767.78;5061802;28;45327;-59
2022/06/14 09:28:15;;;;;;;;;5.25;5.00;;;;;23.08;45.90;101762.81;5061620;28;46158;-59
2022/06/14 09:31:06;;;;;;;;;3.25;3.25;;;;;23.17;46.24;101765.59;5061516;28;45468;-59
2022/06/14 09:34:04;;;;;;;;;4.00;4.00;;;;;23.18;45.78;101754.69;5061687;28;45364;-59
2022/06/14 09:36:46;;;;;;;;;5.25;5.25;;;;;23.23;45.96;101754.28;5061906;28;45362;-59
2022/06/14 09:39:27;;;;;;;;;5.50;5.00;;;;;23.27;45.87;101756.50;5061421;28;46259;-59
2022/06/14 09:42:11;;;;;;;;;6.75;6.75;;;;;23.32;45.83;101750.69;5061012;28;45442;-59
2022/06/14 09:44:39;;;;;;;;;8.50;7.00;;;;;23.34;45.48;101757.59;5061704;28;45450;-59
2022/06/14 09:47:11;;;;;;;;;11.00;9.50;;;;;23.38;45.33;101748.25;5061454;28;45366;-59
2022/06/14 09:49:55;;;;;;;;;6.00;4.50;;;;;23.48;45.62;101756.25;5061280;28;46242;-59
2022/06/14 09:52:58;;;;;;;;;6.00;4.75;;;;;23.50;45.50;101758.78;5060840;28;45411;-59
2022/06/14 09:55:48;;;;;;;;;6.00;5.00;;;;;23.53;45.40;101753.94;5038885;28;45592;-59
2022/06/14 09:58:36;;;;;;;;;4.75;4.75;;;;;23.61;44.87;101761.28;5038965;28;45385;-58
2022/06/14 10:01:20;;;;;;;;;7.25;5.25;;;;;23.66;44.97;101761.69;5055959;28;45483;-58
2022/06/14 10:04:13;;;;;;;;;6.00;4.75;;;;;23.64;44.92;101752.94;5060583;28;45332;-58
2022/06/14 10:07:08;;;;;;;;;6.00;5.00;;;;;23.71;44.70;101750.50;5060611;28;45226;-58
2022/06/14 10:09:36;;;;;;;;;5.00;5.00;;;;;23.80;44.72;101747.72;5060719;28;45186;-59
2022/06/14 10:12:28;;;;;;;;;6.00;4.75;;;;;23.91;44.59;101738.56;5060857;28;45414;-59
2022/06/14 10:15:14;;;;;;;;;8.00;4.00;;;;;23.99;44.38;101743.19;5059749;28;45298;-58
2022/06/14 10:18:00;;;;;;;;;9.00;5.00;;;;;24.07;44.74;101736.03;5060207;28;45312;-59
2022/06/14 10:20:51;;;;;;;;;6.75;6.25;;;;;24.16;44.71;101735.09;5060271;28;45297;-59
2022/06/14 10:23:34;;;;;;;;;4.75;3.75;;;;;24.20;44.41;101736.50;5058989;28;46372;-58
2022/06/14 10:29:12;;;;;;;;;7.75;5.25;;;;;24.23;44.48;101741.56;5060645;28;45377;-59
2022/06/14 10:31:52;;;;;;;;;5.25;5.25;;;;;24.31;43.86;101742.63;5060433;28;45529;-59
2022/06/14 10:34:45;;;;;;;;;6.00;5.00;;;;;24.30;44.11;101738.25;5060210;28;46090;-59
2022/06/14 10:37:33;;;;;;;;;8.25;7.00;;;;;24.29;44.26;101739.25;5060251;28;45284;-59
2022/06/14 10:40:17;;;;;;;;;4.00;4.00;;;;;24.33;44.14;101732.56;5060456;28;45237;-59
2022/06/14 10:43:14;;;;;;;;;5.25;5.25;;;;;24.42;44.09;101726.28;5060251;28;45250;-58
2022/06/14 10:46:12;;;;;;;;;7.00;5.00;;;;;24.48;43.89;101721.06;5059983;28;45398;-58
2022/06/14 10:48:49;;;;;;;;;5.50;5.50;;;;;24.50;43.33;101719.09;5059591;28;45331;-58
2022/06/14 10:51:50;;;;;;;;;6.75;5.75;;;;;24.49;43.47;101721.94;5060381;28;45209;-59
2022/06/14 10:54:27;;;;;;;;;6.50;5.50;;;;;24.54;43.27;101705.28;5048071;28;45465;-59
2022/06/14 10:57:09;;;;;;;;;7.00;5.00;;;;;24.63;43.21;101701.63;5059558;28;46365;-59
2022/06/14 11:00:05;;;;;;;;;6.25;4.50;;;;;24.71;43.02;101699.00;5059992;28;45380;-59
2022/06/14 11:02:55;;;;;;;;;8.50;7.25;;;;;24.77;43.20;101698.34;5059998;28;45330;-59
2022/06/14 11:05:54;;;;;;;;;13.25;7.50;;;;;24.84;42.71;101695.88;5060402;28;45444;-59
2022/06/14 11:08:38;;;;;;;;;6.00;5.25;;;;;24.92;42.70;101690.53;5059612;28;45348;-59
2022/06/14 11:11:51;;;;;;;;;6.50;5.75;;;;;25.05;43.36;101682.88;5059531;28;45294;-59
2022/06/14 11:14:31;;;;;;;;;6.50;5.00;;;;;25.12;42.77;101683.03;5057686;28;45358;-59
2022/06/14 11:17:07;;;;;;;;;8.25;6.00;;;;;25.16;42.84;101670.94;5060247;28;45377;-59
2022/06/14 11:19:44;;;;;;;;;7.25;5.50;;;;;25.18;42.56;101668.91;5059872;28;45379;-59
2022/06/14 11:22:13;;;;;;;;;5.50;5.25;;;;;25.20;42.92;101665.06;5060089;28;45328;-59
2022/06/14 11:24:54;;;;;;;;;7.00;7.00;;;;;25.25;42.28;101670.78;5060152;28;45276;-59
2022/06/14 11:27:22;;;;;;;;;8.75;5.00;;;;;25.27;42.81;101663.38;5063044;28;45439;-58
2022/06/14 11:30:10;;;;;;;;;6.75;6.00;;;;;25.32;42.49;101657.50;5063244;28;45259;-59
2022/06/14 11:32:58;;;;;;;;;4.75;4.75;;;;;25.34;42.46;101661.72;5059065;28;45475;-59
2022/06/14 11:35:47;;;;;;;;;6.50;5.50;;;;;25.36;41.97;101645.38;5063734;28;45318;-59
2022/06/14 11:38:42;;;;;;;;;7.00;6.00;;;;;25.36;41.88;101648.06;5063315;28;45231;-59
2022/06/14 11:41:11;;;;;;;;;6.00;5.25;;;;;25.39;42.06;101638.81;5060373;28;45696;-59
2022/06/14 11:43:53;;;;;;;;;6.00;5.75;;;;;25.41;42.24;101637.63;5063266;28;45310;-58
2022/06/14 11:46:42;;;;;;;;;4.00;4.00;;;;;25.44;42.21;101634.59;5063453;28;45318;-57
2022/06/14 11:49:39;;;;;;;;;6.00;4.75;;;;;25.43;41.81;101624.78;5063272;28;45457;-57
2022/06/14 11:52:29;;;;;;;;;4.00;4.00;;;;;25.46;41.98;101620.94;5062562;28;45501;-58
2022/06/14 11:55:25;;;;;;;;;8.25;5.50;;;;;25.54;41.76;101612.84;5062808;28;45496;-58
2022/06/14 11:58:22;;;;;;;;;5.00;4.50;;;;;25.63;41.97;101608.31;5063197;28;45439;-58
2022/06/14 12:01:09;;;;;;;;;7.25;5.00;;;;;25.69;41.54;101619.28;5063345;28;45484;-58
2022/06/14 12:04:00;;;;;;;;;9.00;4.25;;;;;25.68;41.88;101616.75;5063009;28;45427;-58
2022/06/14 12:06:33;;;;;;;;;7.25;5.50;;;;;25.70;41.73;101607.47;5062707;28;45395;-58
2022/06/14 12:09:01;;;;;;;;;5.50;5.00;;;;;25.74;41.51;101614.22;5063265;28;45344;-58
2022/06/14 12:11:34;;;;;;;;;7.00;5.50;;;;;25.75;41.62;101605.16;5062877;28;45388;-58
2022/06/14 12:14:37;;;;;;;;;5.50;4.75;;;;;25.79;41.11;101603.78;5062633;28;45603;-58
2022/06/14 12:17:19;;;;;;;;;4.75;4.50;;;;;25.86;41.35;101595.84;5062816;28;45287;-58
2022/06/14 12:19:52;;;;;;;;;7.75;5.00;;;;;25.94;41.50;101600.41;5062795;28;45377;-58
2022/06/14 12:22:28;;;;;;;;;7.25;5.50;;;;;25.97;41.27;101600.88;5062265;28;45512;-58
2022/06/14 12:28:26;;;;;;;;;8.00;5.50;;;;;26.09;41.01;101594.13;5053907;28;45472;-58
2022/06/14 12:31:01;;;;;;;;;6.50;5.75;;;;;26.12;41.11;101593.78;5062363;28;45412;-58
2022/06/14 12:33:37;;;;;;;;;5.50;5.00;;;;;26.13;41.06;101578.41;5062440;28;45341;-57
2022/06/14 12:36:15;;;;;;;;;6.25;6.00;;;;;26.18;40.87;101573.34;5062819;28;46219;-58
2022/06/14 12:38:44;;;;;;;;;8.25;7.25;;;;;26.24;40.97;101569.97;5061180;28;45175;-58
2022/06/14 12:41:32;;;;;;;;;8.75;6.25;;;;;26.34;40.90;101567.06;5062608;28;45221;-58